Time,TemperatureF,DewpointF,PressureIn,WindDirection,WindDirectionDegrees,WindSpeedMPH,WindSpeedGustMPH,Humidity,HourlyPrecipIn,Conditions,Clouds,dailyrainin,SoftwareType,DateUTC
2013-01-13 00:00:00,39.3,34.0,29.84,North,350,12.0,20.0,81,0.00,,OVC032,0.04,VWS V14.01,2013-01-13 06:00:00,
2013-01-13 00:05:00,39.3,34.0,29.84,NNW,341,13.0,15.0,81,0.00,,OVC032,0.00,VWS V14.01,2013-01-13 06:05:00,
2013-01-13 00:10:00,39.3,34.0,29.84,NNW,337,5.0,9.0,81,0.00,,OVC014,0.00,VWS V14.01,2013-01-13 06:10:00,
2013-01-13 00:15:00,39.3,34.0,29.84,NNW,346,9.0,13.0,81,0.00,,OVC014,0.00,VWS V14.01,2013-01-13 06:15:00,
2013-01-13 00:20:00,39.3,34.0,29.84,NNW,336,13.0,17.0,81,0.00,,OVC014,0.00,VWS V14.01,2013-01-13 06:20:00,
2013-01-13 00:25:00,39.2,33.6,29.84,North,355,5.0,17.0,80,0.00,,OVC014,0.00,VWS V14.01,2013-01-13 06:25:00,
2013-01-13 00:31:00,39.2,33.6,29.83,NNW,327,6.0,6.0,80,0.00,,OVC014,0.00,VWS V14.01,2013-01-13 06:31:00,
2013-01-13 00:36:00,39.1,33.5,29.83,NNW,348,13.0,21.0,80,0.00,,OVC014,0.00,VWS V14.01,2013-01-13 06:36:00,
2013-01-13 00:41:00,39.1,33.5,29.83,NNW,338,11.0,17.0,80,0.00,,OVC016,0.00,VWS V14.01,2013-01-13 06:41:00,
2013-01-13 00:46:00,39.2,33.2,29.84,NNW,338,9.0,17.0,79,0.00,,OVC016,0.00,VWS V14.01,2013-01-13 06:46:00,
2013-01-13 00:51:00,39.2,33.2,29.84,NW,318,13.0,17.0,79,0.00,,OVC016,0.00,VWS V14.01,2013-01-13 06:51:00,
2013-01-13 00:56:00,39.3,33.3,29.84,NNE,12,12.0,18.0,79,0.00,,OVC016,0.00,VWS V14.01,2013-01-13 06:56:00,
2013-01-13 01:01:00,39.3,33.3,29.85,North,355,7.0,13.0,79,0.00,,OVC016,0.00,VWS V14.01,2013-01-13 07:01:00,
2013-01-13 01:06:00,39.5,33.5,29.85,NNW,342,10.0,16.0,79,0.00,,OVC016,0.00,VWS V14.01,2013-01-13 07:06:00,
2013-01-13 01:11:00,39.5,33.5,29.85,NNW,337,6.0,11.0,79,0.00,,OVC016,0.00,VWS V14.01,2013-01-13 07:11:00,
2013-01-13 01:16:00,39.6,34.0,29.86,NW,323,15.0,17.0,80,0.00,,OVC016,0.00,VWS V14.01,2013-01-13 07:16:00,
2013-01-13 01:22:00,39.5,33.8,29.86,North,5,10.0,13.0,80,0.00,,OVC016,0.00,VWS V14.01,2013-01-13 07:22:00,
2013-01-13 01:27:00,39.5,33.8,29.86,NW,323,9.0,17.0,80,0.00,,OVC016,0.00,VWS V14.01,2013-01-13 07:27:00,
2013-01-13 01:32:00,39.5,33.8,29.87,NNW,336,7.0,14.0,80,0.00,,OVC016,0.00,VWS V14.01,2013-01-13 07:32:00,
2013-01-13 01:37:00,39.5,33.8,29.87,NW,326,9.0,16.0,80,0.00,,OVC016,0.00,VWS V14.01,2013-01-13 07:37:00,
2013-01-13 01:42:00,39.3,33.3,29.87,NNW,340,10.0,18.0,79,0.00,,OVC016,0.00,VWS V14.01,2013-01-13 07:42:00,
2013-01-13 01:47:00,39.2,33.2,29.87,NNW,336,12.0,20.0,79,0.00,,OVC016,0.00,VWS V14.01,2013-01-13 07:47:00,
2013-01-13 01:52:00,39.3,33.3,29.87,NNW,329,7.0,14.0,79,0.00,,OVC016,0.00,VWS V14.01,2013-01-13 07:52:00,
2013-01-13 01:57:00,39.3,33.0,29.87,NNW,333,9.0,15.0,78,0.00,,OVC016,0.00,VWS V14.01,2013-01-13 07:57:00,
2013-01-13 02:02:00,39.3,33.3,29.89,WNW,300,9.0,12.0,79,0.00,,OVC016,0.00,VWS V14.01,2013-01-13 08:02:00,
2013-01-13 02:07:00,39.3,33.0,29.89,NW,304,12.0,16.0,78,0.00,,OVC016,0.00,VWS V14.01,2013-01-13 08:07:00,
2013-01-13 02:12:00,39.2,33.2,29.89,WNW,290,13.0,17.0,79,0.00,,OVC049,0.00,VWS V14.01,2013-01-13 08:12:00,
2013-01-13 02:18:00,38.9,32.6,29.90,NNW,335,15.0,17.0,78,0.00,,OVC049,0.00,VWS V14.01,2013-01-13 08:18:00,
2013-01-13 02:23:00,38.8,32.5,29.90,NNW,337,16.0,19.0,78,0.00,,OVC049,0.00,VWS V14.01,2013-01-13 08:23:00,
2013-01-13 02:28:00,38.8,32.5,29.90,NNW,329,12.0,19.0,78,0.00,,OVC049,0.00,VWS V14.01,2013-01-13 08:28:00,
2013-01-13 02:33:00,38.6,32.3,29.91,NNW,336,11.0,17.0,78,0.00,,OVC049,0.00,VWS V14.01,2013-01-13 08:33:00,
2013-01-13 02:38:00,38.6,32.3,29.91,NNW,327,9.0,18.0,78,0.00,,OVC049,0.00,VWS V14.01,2013-01-13 08:38:00,
2013-01-13 02:43:00,38.5,32.2,29.91,WNW,297,6.0,16.0,78,0.00,,OVC049,0.00,VWS V14.01,2013-01-13 08:43:00,
2013-01-13 02:48:00,38.5,32.2,29.91,NNW,335,13.0,16.0,78,0.00,,OVC049,0.00,VWS V14.01,2013-01-13 08:48:00,
2013-01-13 02:53:00,38.3,32.0,29.91,NW,312,11.0,19.0,78,0.00,,OVC049,0.00,VWS V14.01,2013-01-13 08:53:00,
2013-01-13 02:58:00,38.0,31.4,29.91,NNW,346,18.0,20.0,77,0.00,,OVC049,0.00,VWS V14.01,2013-01-13 08:58:00,
2013-01-13 03:03:00,37.9,31.4,29.91,WNW,303,16.0,20.0,77,0.00,,OVC049,0.00,VWS V14.01,2013-01-13 09:03:00,
2013-01-13 03:09:00,37.8,31.2,29.91,NW,323,15.0,20.0,77,0.00,,OVC049,0.00,VWS V14.01,2013-01-13 09:09:00,
2013-01-13 03:14:00,37.8,31.2,29.91,NNW,338,17.0,22.0,77,0.00,,OVC055,0.00,VWS V14.01,2013-01-13 09:14:00,
2013-01-13 03:19:00,37.8,31.6,29.89,NNW,344,4.0,22.0,78,0.00,,OVC055,0.00,VWS V14.01,2013-01-13 09:19:00,
2013-01-13 03:24:00,37.6,31.7,29.89,NW,324,10.0,13.0,79,0.00,,OVC055,0.00,VWS V14.01,2013-01-13 09:24:00,
2013-01-13 03:29:00,37.5,31.9,29.92,WNW,296,12.0,17.0,80,0.00,,OVC055,0.00,VWS V14.01,2013-01-13 09:29:00,
2013-01-13 03:34:00,37.3,31.7,29.92,NNW,336,13.0,16.0,80,0.00,,OVC055,0.00,VWS V14.01,2013-01-13 09:34:00,
2013-01-13 03:39:00,37.2,31.6,29.92,NNW,328,11.0,17.0,80,0.00,,OVC055,0.00,VWS V14.01,2013-01-13 09:39:00,
2013-01-13 03:44:00,37.3,31.7,29.93,NW,322,11.0,15.0,80,0.00,,OVC060,0.00,VWS V14.01,2013-01-13 09:44:00,
2013-01-13 03:49:00,37.2,31.6,29.93,NNW,346,14.0,22.0,80,0.01,,OVC060,0.01,VWS V14.01,2013-01-13 09:49:00,
2013-01-13 03:54:00,36.9,31.0,29.93,NNW,339,9.0,21.0,79,0.01,,OVC060,0.01,VWS V14.01,2013-01-13 09:54:00,
2013-01-13 04:00:00,36.9,31.0,29.89,NNW,333,6.0,21.0,79,0.01,,OVC060,0.01,VWS V14.01,2013-01-13 10:00:00,
2013-01-13 04:05:00,36.9,31.0,29.89,NNW,338,9.0,18.0,79,0.01,,OVC060,0.01,VWS V14.01,2013-01-13 10:05:00,
2013-01-13 04:10:00,37.0,31.1,29.89,North,355,9.0,18.0,79,0.01,,OVC060,0.01,VWS V14.01,2013-01-13 10:10:00,
2013-01-13 04:15:00,37.0,31.4,29.92,North,5,5.0,17.0,80,0.01,,OVC065,0.01,VWS V14.01,2013-01-13 10:15:00,
2013-01-13 04:20:00,36.9,31.3,29.92,NNW,329,16.0,20.0,80,0.01,,OVC065,0.01,VWS V14.01,2013-01-13 10:20:00,
2013-01-13 04:25:00,36.8,31.2,29.92,NW,311,11.0,18.0,80,0.01,,OVC065,0.01,VWS V14.01,2013-01-13 10:25:00,
2013-01-13 04:30:00,36.6,31.0,29.92,NNW,327,5.0,6.0,80,0.01,,OVC065,0.01,VWS V14.01,2013-01-13 10:30:00,
2013-01-13 04:35:00,36.6,31.0,29.92,NNW,339,16.0,18.0,80,0.01,,OVC065,0.01,VWS V14.01,2013-01-13 10:35:00,
2013-01-13 04:40:00,36.6,31.0,29.92,NW,320,16.0,16.0,80,0.01,,OVC065,0.01,VWS V14.01,2013-01-13 10:40:00,
2013-01-13 04:45:00,36.6,30.7,29.92,NNW,342,12.0,20.0,79,0.01,,OVC065,0.01,VWS V14.01,2013-01-13 10:45:00,
2013-01-13 04:50:00,36.5,30.6,29.92,NNW,339,10.0,12.0,79,0.00,,OVC065,0.01,VWS V14.01,2013-01-13 10:50:00,
2013-01-13 04:56:00,36.5,30.6,29.92,NNW,333,6.0,16.0,79,0.00,,OVC065,0.01,VWS V14.01,2013-01-13 10:56:00,
2013-01-13 05:01:00,36.6,30.7,29.94,NW,311,10.0,12.0,79,0.00,,OVC065,0.01,VWS V14.01,2013-01-13 11:01:00,
2013-01-13 05:06:00,36.6,30.7,29.94,NNW,336,13.0,15.0,79,0.00,,OVC065,0.01,VWS V14.01,2013-01-13 11:06:00,
2013-01-13 05:11:00,36.6,30.7,29.94,NW,320,12.0,13.0,79,0.00,,-RA,0.01,VWS V14.01,2013-01-13 11:11:00,
2013-01-13 05:16:00,36.5,30.6,29.94,NNW,346,16.0,18.0,79,0.00,,-RA,0.01,VWS V14.01,2013-01-13 11:16:00,
2013-01-13 05:21:00,36.3,30.1,29.94,NNW,336,11.0,17.0,78,0.00,,-RA,0.01,VWS V14.01,2013-01-13 11:21:00,
2013-01-13 05:26:00,36.3,30.1,29.94,North,355,5.0,17.0,78,0.00,,-RA,0.01,VWS V14.01,2013-01-13 11:26:00,
2013-01-13 05:31:00,36.3,30.1,29.96,NNW,335,10.0,12.0,78,0.00,,-RA,0.01,VWS V14.01,2013-01-13 11:31:00,
2013-01-13 05:36:00,36.2,29.7,29.96,NNW,343,15.0,21.0,77,0.00,,-RA,0.01,VWS V14.01,2013-01-13 11:36:00,
2013-01-13 05:41:00,36.2,29.7,29.96,NNW,340,6.0,11.0,77,0.00,,-RA,0.01,VWS V14.01,2013-01-13 11:41:00,
2013-01-13 05:46:00,36.2,29.7,29.97,North,10,4.0,11.0,77,0.00,,-RA,0.01,VWS V14.01,2013-01-13 11:46:00,
2013-01-13 05:52:00,36.2,29.4,29.97,NNW,346,6.0,18.0,76,0.00,,-RA,0.01,VWS V14.01,2013-01-13 11:52:00,
2013-01-13 05:57:00,36.2,29.4,29.97,NNW,327,13.0,18.0,76,0.00,,-RA,0.01,VWS V14.01,2013-01-13 11:57:00,
2013-01-13 06:02:00,36.0,29.2,29.96,NNW,333,14.0,17.0,76,0.00,,-RA,0.01,VWS V14.01,2013-01-13 12:02:00,
2013-01-13 06:07:00,35.9,29.1,29.96,NNW,342,14.0,19.0,76,0.00,,-RA,0.01,VWS V14.01,2013-01-13 12:07:00,
2013-01-13 06:12:00,35.8,29.0,29.96,NNW,341,16.0,19.0,76,0.00,,OVC070,0.01,VWS V14.01,2013-01-13 12:12:00,
2013-01-13 06:17:00,35.8,29.0,29.99,NW,326,13.0,19.0,76,0.00,,OVC070,0.01,VWS V14.01,2013-01-13 12:17:00,
2013-01-13 06:22:00,35.8,28.7,29.99,North,351,7.0,16.0,75,0.00,,OVC070,0.01,VWS V14.01,2013-01-13 12:22:00,
2013-01-13 06:27:00,35.8,28.7,29.99,NW,326,11.0,19.0,75,0.00,,OVC070,0.01,VWS V14.01,2013-01-13 12:27:00,
2013-01-13 06:32:00,35.8,28.7,30.01,NNW,336,7.0,18.0,75,0.00,,OVC070,0.01,VWS V14.01,2013-01-13 12:32:00,
2013-01-13 06:37:00,35.8,28.7,30.01,NNW,327,8.0,18.0,75,0.00,,OVC070,0.01,VWS V14.01,2013-01-13 12:37:00,
2013-01-13 06:43:00,35.8,28.7,30.01,NNW,340,14.0,16.0,75,0.00,,OVC070,0.01,VWS V14.01,2013-01-13 12:43:00,
2013-01-13 06:48:00,35.8,28.7,30.01,North,355,8.0,16.0,75,0.00,,OVC070,0.01,VWS V14.01,2013-01-13 12:48:00,
2013-01-13 06:53:00,35.8,28.7,30.01,NNW,333,10.0,16.0,75,0.00,,OVC070,0.01,VWS V14.01,2013-01-13 12:53:00,
2013-01-13 06:58:00,35.6,28.1,30.01,NNW,343,7.0,16.0,74,0.00,,OVC070,0.01,VWS V14.01,2013-01-13 12:58:00,
2013-01-13 07:03:00,35.6,28.5,30.02,NNW,336,6.0,15.0,75,0.00,,OVC070,0.01,VWS V14.01,2013-01-13 13:03:00,
2013-01-13 07:08:00,35.8,28.7,30.02,NNW,342,12.0,15.0,75,0.00,,OVC070,0.01,VWS V14.01,2013-01-13 13:08:00,
2013-01-13 07:13:00,35.6,28.1,30.02,NNW,338,8.0,18.0,74,0.00,,OVC070,0.01,VWS V14.01,2013-01-13 13:13:00,
2013-01-13 07:18:00,35.6,28.1,30.03,NNW,333,11.0,18.0,74,0.00,,OVC070,0.01,VWS V14.01,2013-01-13 13:18:00,
2013-01-13 07:24:00,35.6,28.1,30.03,NNW,329,6.0,14.0,74,0.00,,OVC070,0.01,VWS V14.01,2013-01-13 13:24:00,
2013-01-13 07:29:00,35.6,28.1,30.03,North,355,10.0,18.0,74,0.00,,OVC070,0.01,VWS V14.01,2013-01-13 13:29:00,
2013-01-13 07:34:00,35.6,28.1,30.05,NNW,340,12.0,17.0,74,0.00,,OVC070,0.01,VWS V14.01,2013-01-13 13:34:00,
2013-01-13 07:39:00,35.6,28.1,30.05,NNW,340,11.0,18.0,74,0.00,,OVC070,0.01,VWS V14.01,2013-01-13 13:39:00,
2013-01-13 07:44:00,35.6,28.1,30.05,NNW,328,12.0,15.0,74,0.00,,OVC070,0.01,VWS V14.01,2013-01-13 13:44:00,
2013-01-13 07:49:00,35.6,28.1,30.05,NNE,22,7.0,18.0,74,0.00,,OVC070,0.01,VWS V14.01,2013-01-13 13:49:00,
2013-01-13 07:54:00,35.8,28.3,30.05,NNW,337,5.0,14.0,74,0.00,,OVC070,0.01,VWS V14.01,2013-01-13 13:54:00,
2013-01-13 07:59:00,35.8,28.3,30.04,NW,317,11.0,17.0,74,0.00,,OVC070,0.01,VWS V14.01,2013-01-13 13:59:00,
2013-01-13 08:05:00,35.6,28.5,30.04,North,355,9.0,19.0,75,0.00,,OVC070,0.01,VWS V14.01,2013-01-13 14:05:00,
2013-01-13 08:10:00,35.6,27.8,30.04,NW,326,10.0,19.0,73,0.00,,OVC070,0.01,VWS V14.01,2013-01-13 14:10:00,
2013-01-13 08:15:00,35.6,28.1,30.06,NNW,333,13.0,19.0,74,0.00,,OVC080,0.01,VWS V14.01,2013-01-13 14:15:00,
2013-01-13 08:20:00,35.8,28.3,30.06,NW,321,14.0,19.0,74,0.00,,OVC080,0.01,VWS V14.01,2013-01-13 14:20:00,
2013-01-13 08:25:00,35.8,28.3,30.06,North,355,10.0,18.0,74,0.00,,OVC080,0.01,VWS V14.01,2013-01-13 14:25:00,
2013-01-13 08:30:00,35.9,28.1,30.07,North,349,15.0,15.0,73,0.00,,OVC080,0.01,VWS V14.01,2013-01-13 14:30:00,
2013-01-13 08:35:00,35.9,28.1,30.07,NNW,327,15.0,20.0,73,0.00,,OVC080,0.01,VWS V14.01,2013-01-13 14:35:00,
2013-01-13 08:40:00,35.8,28.3,30.07,NW,322,14.0,18.0,74,0.00,,OVC080,0.01,VWS V14.01,2013-01-13 14:40:00,
2013-01-13 08:45:00,35.8,28.0,30.07,NNW,333,13.0,19.0,73,0.00,,OVC080,0.01,VWS V14.01,2013-01-13 14:45:00,
2013-01-13 08:50:00,35.8,28.0,30.07,NW,325,10.0,16.0,73,0.00,,OVC080,0.01,VWS V14.01,2013-01-13 14:50:00,
2013-01-13 08:56:00,35.9,28.1,30.07,NNW,346,16.0,21.0,73,0.00,,OVC080,0.01,VWS V14.01,2013-01-13 14:56:00,
2013-01-13 09:01:00,35.9,28.1,30.08,NNW,334,13.0,18.0,73,0.00,,OVC080,0.01,VWS V14.01,2013-01-13 15:01:00,
2013-01-13 09:06:00,35.8,28.0,30.08,North,355,10.0,19.0,73,0.00,,OVC080,0.01,VWS V14.01,2013-01-13 15:06:00,
2013-01-13 09:11:00,36.2,28.7,30.08,North,360,5.0,11.0,74,0.00,,OVC090,0.01,VWS V14.01,2013-01-13 15:11:00,
2013-01-13 09:16:00,36.6,28.8,30.09,NNW,331,12.0,19.0,73,0.00,,OVC090,0.01,VWS V14.01,2013-01-13 15:16:00,
2013-01-13 09:21:00,36.5,28.4,30.09,NW,326,13.0,17.0,72,0.00,,OVC090,0.01,VWS V14.01,2013-01-13 15:21:00,
2013-01-13 09:26:00,36.2,28.1,30.09,NNW,327,12.0,23.0,72,0.00,,OVC090,0.01,VWS V14.01,2013-01-13 15:26:00,
2013-01-13 09:31:00,36.3,28.1,30.10,NNW,337,16.0,18.0,72,0.00,,OVC090,0.01,VWS V14.01,2013-01-13 15:31:00,
2013-01-13 09:36:00,37.3,28.4,30.10,NNW,340,13.0,19.0,70,0.00,,OVC090,0.01,VWS V14.01,2013-01-13 15:36:00,
2013-01-13 09:42:00,38.3,28.7,30.10,NNE,14,15.0,19.0,68,0.00,,OVC090,0.01,VWS V14.01,2013-01-13 15:42:00,
2013-01-13 09:47:00,38.5,28.5,30.12,NNW,333,14.0,19.0,67,0.00,,OVC090,0.01,VWS V14.01,2013-01-13 15:47:00,
2013-01-13 09:52:00,38.8,27.7,30.12,NNW,348,8.0,17.0,64,0.00,,OVC090,0.01,VWS V14.01,2013-01-13 15:52:00,
2013-01-13 09:57:00,39.5,29.5,30.12,North,360,10.0,17.0,67,0.00,,OVC090,0.01,VWS V14.01,2013-01-13 15:57:00,
2013-01-13 10:02:00,39.5,29.1,30.12,NNW,348,14.0,19.0,66,0.00,,OVC090,0.01,VWS V14.01,2013-01-13 16:02:00,
2013-01-13 10:07:00,38.2,28.2,30.12,NW,324,11.0,19.0,67,0.00,,OVC090,0.01,VWS V14.01,2013-01-13 16:07:00,
2013-01-13 10:12:00,37.9,27.9,30.12,NNW,333,8.0,19.0,67,0.00,,OVC085,0.01,VWS V14.01,2013-01-13 16:12:00,
2013-01-13 10:17:00,38.6,29.0,30.12,WNW,298,15.0,24.0,68,0.00,,OVC085,0.01,VWS V14.01,2013-01-13 16:17:00,
2013-01-13 10:22:00,37.8,27.5,30.12,NNW,336,13.0,18.0,66,0.00,,OVC085,0.01,VWS V14.01,2013-01-13 16:22:00,
2013-01-13 10:27:00,38.0,28.4,30.12,NNE,15,9.0,18.0,68,0.00,,OVC085,0.01,VWS V14.01,2013-01-13 16:27:00,
2013-01-13 10:32:00,39.1,29.1,30.12,NNW,348,13.0,18.0,67,0.00,,OVC085,0.01,VWS V14.01,2013-01-13 16:32:00,
2013-01-13 10:38:00,40.2,29.8,30.12,NNW,331,10.0,18.0,66,0.00,,OVC085,0.01,VWS V14.01,2013-01-13 16:38:00,
2013-01-13 10:43:00,40.1,28.9,30.12,NW,315,9.0,17.0,64,0.00,,OVC085,0.01,VWS V14.01,2013-01-13 16:43:00,
2013-01-13 10:48:00,39.9,28.7,30.12,NNE,18,5.0,19.0,64,0.00,,OVC085,0.01,VWS V14.01,2013-01-13 16:48:00,
2013-01-13 10:53:00,40.3,29.5,30.12,NW,321,12.0,15.0,65,0.00,,OVC085,0.01,VWS V14.01,2013-01-13 16:53:00,
2013-01-13 10:58:00,40.3,29.1,30.12,North,360,10.0,17.0,64,0.00,,OVC085,0.01,VWS V14.01,2013-01-13 16:58:00,
2013-01-13 11:03:00,40.9,29.3,30.12,NW,325,15.0,19.0,63,0.00,,OVC085,0.01,VWS V14.01,2013-01-13 17:03:00,
2013-01-13 11:08:00,40.8,28.8,30.12,NNW,328,17.0,20.0,62,0.00,,OVC085,0.01,VWS V14.01,2013-01-13 17:08:00,
2013-01-13 11:13:00,40.6,28.6,30.12,NW,318,17.0,18.0,62,0.00,,CLR,0.01,VWS V14.01,2013-01-13 17:13:00,
2013-01-13 11:18:00,40.6,28.6,30.12,NNW,344,11.0,20.0,62,0.00,,CLR,0.01,VWS V14.01,2013-01-13 17:18:00,
2013-01-13 11:24:00,41.2,28.8,30.12,NW,311,10.0,19.0,61,0.00,,CLR,0.01,VWS V14.01,2013-01-13 17:24:00,
2013-01-13 11:29:00,42.2,29.7,30.12,NNW,347,9.0,19.0,61,0.00,,CLR,0.01,VWS V14.01,2013-01-13 17:29:00,
2013-01-13 11:34:00,41.9,29.9,30.12,North,5,9.0,19.0,62,0.00,,CLR,0.01,VWS V14.01,2013-01-13 17:34:00,
2013-01-13 11:39:00,42.9,30.4,30.12,NNW,327,9.0,19.0,61,0.00,,CLR,0.01,VWS V14.01,2013-01-13 17:39:00,
2013-01-13 11:44:00,42.2,29.3,30.12,NNW,343,10.0,18.0,60,0.00,,CLR,0.01,VWS V14.01,2013-01-13 17:44:00,
2013-01-13 11:49:00,42.1,29.6,30.12,NNW,345,8.0,18.0,61,0.00,,CLR,0.01,VWS V14.01,2013-01-13 17:49:00,
2013-01-13 11:54:00,42.1,29.2,30.12,North,5,7.0,17.0,60,0.00,,CLR,0.01,VWS V14.01,2013-01-13 17:54:00,
2013-01-13 11:59:00,42.8,29.9,30.11,NNW,341,11.0,17.0,60,0.00,,CLR,0.01,VWS V14.01,2013-01-13 17:59:00,
2013-01-13 12:04:00,43.3,29.5,30.11,WNW,293,8.0,17.0,58,0.00,,CLR,0.01,VWS V14.01,2013-01-13 18:04:00,
2013-01-13 12:10:00,43.3,30.0,30.11,NNE,16,10.0,18.0,59,0.00,,CLR,0.01,VWS V14.01,2013-01-13 18:10:00,
2013-01-13 12:15:00,43.3,29.5,30.10,NNW,341,6.0,17.0,58,0.00,,CLR,0.01,VWS V14.01,2013-01-13 18:15:00,
2013-01-13 12:20:00,43.9,30.1,30.10,NNW,348,13.0,17.0,58,0.00,,CLR,0.01,VWS V14.01,2013-01-13 18:20:00,
2013-01-13 12:25:00,43.2,29.9,30.10,NNW,336,6.0,20.0,59,0.00,,CLR,0.01,VWS V14.01,2013-01-13 18:25:00,
2013-01-13 12:30:00,43.6,30.2,30.10,NW,321,10.0,15.0,59,0.00,,CLR,0.01,VWS V14.01,2013-01-13 18:30:00,
2013-01-13 12:35:00,43.8,30.0,30.10,NNW,332,12.0,20.0,58,0.00,,CLR,0.01,VWS V14.01,2013-01-13 18:35:00,
2013-01-13 12:40:00,44.1,30.7,30.10,North,360,11.0,13.0,59,0.00,,CLR,0.01,VWS V14.01,2013-01-13 18:40:00,
2013-01-13 12:45:00,43.6,29.8,30.09,NW,323,14.0,20.0,58,0.00,,CLR,0.01,VWS V14.01,2013-01-13 18:45:00,
2013-01-13 12:50:00,43.5,29.7,30.09,NW,319,10.0,13.0,58,0.00,,CLR,0.01,VWS V14.01,2013-01-13 18:50:00,
2013-01-13 12:56:00,44.5,30.2,30.09,North,5,12.0,18.0,57,0.00,,CLR,0.01,VWS V14.01,2013-01-13 18:56:00,
2013-01-13 13:01:00,43.9,30.1,30.09,NW,323,10.0,14.0,58,0.00,,CLR,0.01,VWS V14.01,2013-01-13 19:01:00,
2013-01-13 13:06:00,44.8,31.4,30.09,North,355,7.0,18.0,59,0.00,,CLR,0.01,VWS V14.01,2013-01-13 19:06:00,
2013-01-13 13:11:00,44.8,30.5,30.09,North,350,12.0,18.0,57,0.00,,CLR,0.01,VWS V14.01,2013-01-13 19:11:00,
2013-01-13 13:16:00,44.3,30.5,30.09,NNW,340,14.0,18.0,58,0.00,,CLR,0.01,VWS V14.01,2013-01-13 19:16:00,
2013-01-13 13:21:00,44.3,30.0,30.09,NNW,341,10.0,16.0,57,0.00,,CLR,0.01,VWS V14.01,2013-01-13 19:21:00,
2013-01-13 13:26:00,44.6,30.8,30.09,NNW,333,16.0,17.0,58,0.00,,CLR,0.01,VWS V14.01,2013-01-13 19:26:00,
2013-01-13 13:31:00,44.5,29.8,30.09,NNW,336,11.0,15.0,56,0.00,,CLR,0.01,VWS V14.01,2013-01-13 19:31:00,
2013-01-13 13:37:00,44.2,29.1,30.09,NNW,339,10.0,21.0,55,0.00,,CLR,0.01,VWS V14.01,2013-01-13 19:37:00,
2013-01-13 13:42:00,44.8,30.5,30.09,North,355,10.0,13.0,57,0.00,,CLR,0.01,VWS V14.01,2013-01-13 19:42:00,
2013-01-13 13:47:00,45.5,31.2,30.08,NNW,336,10.0,15.0,57,0.00,,CLR,0.01,VWS V14.01,2013-01-13 19:47:00,
2013-01-13 13:52:00,44.9,30.6,30.08,NNW,340,7.0,16.0,57,0.00,,CLR,0.01,VWS V14.01,2013-01-13 19:52:00,
2013-01-13 13:57:00,45.4,30.6,30.08,NNW,327,7.0,16.0,56,0.00,,CLR,0.01,VWS V14.01,2013-01-13 19:57:00,
2013-01-13 14:02:00,45.7,30.5,30.08,NNW,338,13.0,20.0,55,0.00,,CLR,0.01,VWS V14.01,2013-01-13 20:02:00,
2013-01-13 14:07:00,45.7,30.9,30.08,North,11,11.0,20.0,56,0.00,,CLR,0.01,VWS V14.01,2013-01-13 20:07:00,
2013-01-13 14:12:00,45.1,30.4,30.08,NW,306,8.0,15.0,56,0.00,,CLR,0.01,VWS V14.01,2013-01-13 20:12:00,
2013-01-13 14:17:00,45.4,30.2,30.08,NNW,345,5.0,17.0,55,0.00,,CLR,0.01,VWS V14.01,2013-01-13 20:17:00,
2013-01-13 14:22:00,45.4,30.2,30.08,NNW,336,11.0,17.0,55,0.00,,CLR,0.01,VWS V14.01,2013-01-13 20:22:00,
2013-01-13 14:27:00,45.8,30.6,30.08,NNW,329,11.0,17.0,55,0.00,,CLR,0.01,VWS V14.01,2013-01-13 20:27:00,
2013-01-13 14:33:00,45.7,30.5,30.08,NNW,336,12.0,18.0,55,0.00,,CLR,0.01,VWS V14.01,2013-01-13 20:33:00,
2013-01-13 14:38:00,45.7,30.9,30.08,NNW,331,8.0,18.0,56,0.00,,CLR,0.01,VWS V14.01,2013-01-13 20:38:00,
2013-01-13 14:43:00,46.1,30.9,30.08,NNW,340,6.0,18.0,55,0.00,,CLR,0.01,VWS V14.01,2013-01-13 20:43:00,
2013-01-13 14:48:00,45.8,30.6,30.07,NW,325,9.0,18.0,55,0.00,,CLR,0.01,VWS V14.01,2013-01-13 20:48:00,
2013-01-13 14:53:00,46.4,30.7,30.07,North,5,10.0,15.0,54,0.00,,CLR,0.01,VWS V14.01,2013-01-13 20:53:00,
2013-01-13 14:58:00,46.1,30.4,30.07,NNW,331,15.0,17.0,54,0.00,,CLR,0.01,VWS V14.01,2013-01-13 20:58:00,
2013-01-13 15:04:00,46.0,30.3,30.07,NNE,15,6.0,17.0,54,0.00,,CLR,0.01,VWS V14.01,2013-01-13 21:04:00,
2013-01-13 15:09:00,46.8,30.6,30.07,North,10,7.0,17.0,53,0.00,,CLR,0.01,VWS V14.01,2013-01-13 21:09:00,
2013-01-13 15:14:00,47.0,30.8,30.07,NNE,22,7.0,15.0,53,0.00,,CLR,0.01,VWS V14.01,2013-01-13 21:14:00,
2013-01-13 15:19:00,46.5,29.4,30.08,NNW,337,17.0,17.0,51,0.00,,CLR,0.01,VWS V14.01,2013-01-13 21:19:00,
2013-01-13 15:24:00,46.1,29.9,30.08,North,350,6.0,15.0,53,0.00,,CLR,0.01,VWS V14.01,2013-01-13 21:24:00,
2013-01-13 15:29:00,46.0,29.8,30.08,North,360,6.0,15.0,53,0.00,,CLR,0.01,VWS V14.01,2013-01-13 21:29:00,
2013-01-13 15:34:00,46.1,29.9,30.08,NNE,14,7.0,13.0,53,0.00,,CLR,0.01,VWS V14.01,2013-01-13 21:34:00,
2013-01-13 15:39:00,46.0,29.8,30.08,North,5,11.0,13.0,53,0.00,,CLR,0.01,VWS V14.01,2013-01-13 21:39:00,
2013-01-13 15:45:00,46.1,29.9,30.09,NNW,327,13.0,14.0,53,0.00,,CLR,0.01,VWS V14.01,2013-01-13 21:45:00,
2013-01-13 15:50:00,46.4,30.2,30.09,NNW,346,9.0,16.0,53,0.00,,CLR,0.01,VWS V14.01,2013-01-13 21:50:00,
2013-01-13 15:55:00,46.7,30.5,30.09,NNW,328,11.0,12.0,53,0.00,,CLR,0.01,VWS V14.01,2013-01-13 21:55:00,
2013-01-13 16:00:00,46.2,30.0,30.09,NNW,348,5.0,13.0,53,0.00,,CLR,0.01,VWS V14.01,2013-01-13 22:00:00,
2013-01-13 16:05:00,46.1,29.9,30.09,NNE,18,6.0,15.0,53,0.00,,CLR,0.01,VWS V14.01,2013-01-13 22:05:00,
2013-01-13 16:10:00,46.1,29.5,30.09,NNW,344,0.0,9.0,52,0.00,,CLR,0.01,VWS V14.01,2013-01-13 22:10:00,
2013-01-13 16:15:00,45.8,29.7,30.09,NNW,346,5.0,14.0,53,0.00,,CLR,0.01,VWS V14.01,2013-01-13 22:15:00,
2013-01-13 16:20:00,45.7,29.6,30.09,North,360,12.0,12.0,53,0.00,,CLR,0.01,VWS V14.01,2013-01-13 22:20:00,
2013-01-13 16:25:00,45.5,29.4,30.09,NNE,12,3.0,13.0,53,0.00,,CLR,0.01,VWS V14.01,2013-01-13 22:25:00,
2013-01-13 16:31:00,45.5,29.4,30.09,NNE,14,2.0,13.0,53,0.00,,CLR,0.01,VWS V14.01,2013-01-13 22:31:00,
2013-01-13 16:36:00,45.4,29.7,30.09,NNW,333,4.0,13.0,54,0.00,,CLR,0.01,VWS V14.01,2013-01-13 22:36:00,
2013-01-13 16:41:00,45.2,29.1,30.09,North,351,1.0,11.0,53,0.00,,CLR,0.01,VWS V14.01,2013-01-13 22:41:00,
2013-01-13 16:46:00,44.9,29.3,30.09,North,360,7.0,15.0,54,0.00,,CLR,0.01,VWS V14.01,2013-01-13 22:46:00,
2013-01-13 16:51:00,44.8,29.2,30.09,North,9,4.0,12.0,54,0.00,,CLR,0.01,VWS V14.01,2013-01-13 22:51:00,
2013-01-13 16:56:00,44.6,29.5,30.09,NNE,13,4.0,12.0,55,0.00,,CLR,0.01,VWS V14.01,2013-01-13 22:56:00,
2013-01-13 17:01:00,44.5,29.4,30.10,NNE,20,9.0,10.0,55,0.00,,CLR,0.01,VWS V14.01,2013-01-13 23:01:00,
2013-01-13 17:06:00,44.2,29.1,30.10,NNW,348,5.0,13.0,55,0.00,,CLR,0.01,VWS V14.01,2013-01-13 23:06:00,
2013-01-13 17:11:00,43.9,29.2,30.10,NNW,334,10.0,12.0,56,0.00,,CLR,0.01,VWS V14.01,2013-01-13 23:11:00,
2013-01-13 17:17:00,43.8,29.6,30.10,North,360,4.0,12.0,57,0.00,,CLR,0.01,VWS V14.01,2013-01-13 23:17:00,
2013-01-13 17:22:00,43.3,29.1,30.10,NNW,342,6.0,10.0,57,0.00,,CLR,0.01,VWS V14.01,2013-01-13 23:22:00,
2013-01-13 17:27:00,43.1,28.9,30.10,North,355,6.0,11.0,57,0.00,,CLR,0.01,VWS V14.01,2013-01-13 23:27:00,
2013-01-13 17:32:00,43.1,28.9,30.11,NNW,337,4.0,7.0,57,0.00,,CLR,0.01,VWS V14.01,2013-01-13 23:32:00,
2013-01-13 17:37:00,42.9,29.2,30.11,North,360,5.0,10.0,58,0.00,,CLR,0.01,VWS V14.01,2013-01-13 23:37:00,
2013-01-13 17:42:00,42.8,29.1,30.11,North,360,9.0,10.0,58,0.00,,CLR,0.01,VWS V14.01,2013-01-13 23:42:00,
2013-01-13 17:47:00,42.5,28.8,30.11,NNW,337,3.0,13.0,58,0.00,,CLR,0.01,VWS V14.01,2013-01-13 23:47:00,
2013-01-13 17:53:00,42.2,28.9,30.11,NNW,346,2.0,14.0,59,0.00,,CLR,0.01,VWS V14.01,2013-01-13 23:53:00,
2013-01-13 17:58:00,41.9,29.0,30.11,NNW,335,5.0,14.0,60,0.00,,CLR,0.01,VWS V14.01,2013-01-13 23:58:00,
2013-01-13 18:03:00,41.6,28.8,30.12,NNW,345,5.0,11.0,60,0.00,,CLR,0.01,VWS V14.01,2013-01-14 00:03:00,
2013-01-13 18:08:00,41.3,28.5,30.12,NNW,337,9.0,11.0,60,0.00,,CLR,0.01,VWS V14.01,2013-01-14 00:08:00,
2013-01-13 18:13:00,41.2,28.4,30.12,North,355,6.0,13.0,60,0.00,,CLR,0.01,VWS V14.01,2013-01-14 00:13:00,
2013-01-13 18:18:00,41.1,28.7,30.12,NNW,342,4.0,13.0,61,0.00,,CLR,0.01,VWS V14.01,2013-01-14 00:18:00,
2013-01-13 18:23:00,40.9,28.5,30.12,North,360,7.0,11.0,61,0.00,,CLR,0.01,VWS V14.01,2013-01-14 00:23:00,
2013-01-13 18:28:00,40.8,28.4,30.12,NNW,348,11.0,12.0,61,0.00,,CLR,0.01,VWS V14.01,2013-01-14 00:28:00,
2013-01-13 18:33:00,40.6,28.2,30.12,North,5,5.0,11.0,61,0.00,,CLR,0.01,VWS V14.01,2013-01-14 00:33:00,
2013-01-13 18:39:00,40.5,28.5,30.12,North,350,7.0,11.0,62,0.00,,CLR,0.01,VWS V14.01,2013-01-14 00:39:00,
2013-01-13 18:44:00,40.3,28.3,30.12,NNW,334,4.0,7.0,62,0.00,,CLR,0.01,VWS V14.01,2013-01-14 00:44:00,
2013-01-13 18:49:00,40.1,28.1,30.13,NNW,336,7.0,10.0,62,0.00,,CLR,0.01,VWS V14.01,2013-01-14 00:49:00,
2013-01-13 18:54:00,39.9,28.3,30.13,North,349,8.0,12.0,63,0.00,,CLR,0.01,VWS V14.01,2013-01-14 00:54:00,
2013-01-13 18:59:00,39.8,28.2,30.13,North,360,3.0,13.0,63,0.00,,CLR,0.01,VWS V14.01,2013-01-14 00:59:00,
2013-01-13 19:04:00,39.6,28.1,30.13,North,355,7.0,14.0,63,0.00,,CLR,0.01,VWS V14.01,2013-01-14 01:04:00,
2013-01-13 19:09:00,39.5,28.4,30.13,NNW,348,4.0,14.0,64,0.00,,CLR,0.01,VWS V14.01,2013-01-14 01:09:00,
2013-01-13 19:14:00,39.3,28.2,30.13,North,5,5.0,10.0,64,0.00,,CLR,0.01,VWS V14.01,2013-01-14 01:14:00,
2013-01-13 19:19:00,39.2,28.4,30.13,North,360,6.0,10.0,65,0.00,,CLR,0.01,VWS V14.01,2013-01-14 01:19:00,
2013-01-13 19:24:00,38.9,28.1,30.13,NNW,348,7.0,9.0,65,0.00,,CLR,0.01,VWS V14.01,2013-01-14 01:24:00,
2013-01-13 19:30:00,38.8,28.1,30.14,NNW,348,4.0,10.0,65,0.00,,CLR,0.01,VWS V14.01,2013-01-14 01:30:00,
2013-01-13 19:35:00,38.6,27.9,30.14,North,350,6.0,9.0,65,0.00,,CLR,0.01,VWS V14.01,2013-01-14 01:35:00,
2013-01-13 19:40:00,38.5,27.8,30.14,North,355,5.0,13.0,65,0.00,,CLR,0.01,VWS V14.01,2013-01-14 01:40:00,
2013-01-13 19:45:00,38.3,27.6,30.14,North,355,5.0,11.0,65,0.00,,CLR,0.01,VWS V14.01,2013-01-14 01:45:00,
2013-01-13 19:50:00,38.3,27.6,30.14,North,360,3.0,11.0,65,0.00,,CLR,0.01,VWS V14.01,2013-01-14 01:50:00,
2013-01-13 19:55:00,38.2,27.5,30.14,NNE,22,6.0,12.0,65,0.00,,CLR,0.01,VWS V14.01,2013-01-14 01:55:00,
2013-01-13 20:00:00,38.0,26.9,30.14,North,355,9.0,12.0,64,0.00,,CLR,0.01,VWS V14.01,2013-01-14 02:00:00,
2013-01-13 20:05:00,37.9,26.8,30.14,NNE,33,4.0,13.0,64,0.00,,CLR,0.01,VWS V14.01,2013-01-14 02:05:00,
2013-01-13 20:10:00,37.8,26.4,30.14,North,355,6.0,10.0,63,0.00,,CLR,0.01,VWS V14.01,2013-01-14 02:10:00,
2013-01-13 20:15:00,37.6,25.8,30.14,NNE,19,6.0,12.0,62,0.00,,CLR,0.01,VWS V14.01,2013-01-14 02:15:00,
2013-01-13 20:20:00,37.5,25.7,30.14,North,9,5.0,9.0,62,0.00,,CLR,0.01,VWS V14.01,2013-01-14 02:20:00,
2013-01-13 20:25:00,37.3,25.5,30.14,NNE,18,3.0,11.0,62,0.00,,CLR,0.01,VWS V14.01,2013-01-14 02:25:00,
2013-01-13 20:31:00,37.2,25.4,30.14,North,5,4.0,9.0,62,0.00,,CLR,0.01,VWS V14.01,2013-01-14 02:31:00,
2013-01-13 20:36:00,36.9,25.1,30.14,North,360,4.0,12.0,62,0.00,,CLR,0.01,VWS V14.01,2013-01-14 02:36:00,
2013-01-13 20:41:00,36.8,25.0,30.14,North,5,4.0,10.0,62,0.00,,CLR,0.01,VWS V14.01,2013-01-14 02:41:00,
2013-01-13 20:46:00,36.8,25.0,30.14,North,350,4.0,14.0,62,0.00,,CLR,0.01,VWS V14.01,2013-01-14 02:46:00,
2013-01-13 20:51:00,36.6,24.8,30.14,NNW,348,9.0,13.0,62,0.00,,CLR,0.01,VWS V14.01,2013-01-14 02:51:00,
2013-01-13 20:56:00,36.5,24.7,30.14,NNW,348,6.0,13.0,62,0.00,,CLR,0.01,VWS V14.01,2013-01-14 02:56:00,
2013-01-13 21:01:00,36.3,24.5,30.15,NNW,345,4.0,11.0,62,0.00,,CLR,0.01,VWS V14.01,2013-01-14 03:01:00,
2013-01-13 21:06:00,36.2,24.5,30.15,NNE,19,4.0,12.0,62,0.00,,CLR,0.01,VWS V14.01,2013-01-14 03:06:00,
2013-01-13 21:11:00,36.0,24.3,30.15,NNE,21,2.0,11.0,62,0.00,,CLR,0.01,VWS V14.01,2013-01-14 03:11:00,
2013-01-13 21:16:00,36.0,24.3,30.16,North,355,3.0,11.0,62,0.00,,CLR,0.01,VWS V14.01,2013-01-14 03:16:00,
2013-01-13 21:21:00,35.9,24.5,30.16,NNE,15,0.0,8.0,63,0.00,,CLR,0.01,VWS V14.01,2013-01-14 03:21:00,
2013-01-13 21:27:00,35.8,24.5,30.16,North,360,0.0,11.0,63,0.00,,CLR,0.01,VWS V14.01,2013-01-14 03:27:00,
2013-01-13 21:32:00,35.6,25.0,30.16,North,5,0.0,5.0,65,0.00,,CLR,0.01,VWS V14.01,2013-01-14 03:32:00,
2013-01-13 21:37:00,35.5,24.5,30.16,NNE,20,5.0,8.0,64,0.00,,CLR,0.01,VWS V14.01,2013-01-14 03:37:00,
2013-01-13 21:42:00,35.3,24.4,30.16,North,360,0.0,5.0,64,0.00,,CLR,0.01,VWS V14.01,2013-01-14 03:42:00,
2013-01-13 21:47:00,35.2,24.6,30.17,NNW,340,6.0,9.0,65,0.00,,CLR,0.01,VWS V14.01,2013-01-14 03:47:00,
2013-01-13 21:52:00,35.0,24.4,30.17,North,355,3.0,6.0,65,0.00,,CLR,0.01,VWS V14.01,2013-01-14 03:52:00,
2013-01-13 21:57:00,34.9,24.3,30.17,North,355,3.0,9.0,65,0.00,,CLR,0.01,VWS V14.01,2013-01-14 03:57:00,
2013-01-13 22:02:00,34.7,24.1,30.16,North,5,3.0,10.0,65,0.00,,CLR,0.01,VWS V14.01,2013-01-14 04:02:00,
2013-01-13 22:07:00,34.6,24.1,30.16,North,360,6.0,11.0,65,0.00,,CLR,0.01,VWS V14.01,2013-01-14 04:07:00,
2013-01-13 22:12:00,34.4,23.9,30.16,NNW,344,9.0,9.0,65,0.00,,CLR,0.01,VWS V14.01,2013-01-14 04:12:00,
2013-01-13 22:17:00,34.3,23.8,30.16,North,355,4.0,10.0,65,0.00,,CLR,0.01,VWS V14.01,2013-01-14 04:17:00,
2013-01-13 22:23:00,34.3,23.8,30.16,North,355,9.0,9.0,65,0.00,,CLR,0.01,VWS V14.01,2013-01-14 04:23:00,
2013-01-13 22:28:00,34.1,24.0,30.16,North,349,4.0,9.0,66,0.00,,CLR,0.01,VWS V14.01,2013-01-14 04:28:00,
2013-01-13 22:33:00,34.0,23.9,30.17,North,349,9.0,9.0,66,0.00,,CLR,0.01,VWS V14.01,2013-01-14 04:33:00,
2013-01-13 22:38:00,34.0,23.9,30.17,North,350,3.0,9.0,66,0.00,,CLR,0.01,VWS V14.01,2013-01-14 04:38:00,
2013-01-13 22:43:00,33.8,23.7,30.17,North,355,7.0,10.0,66,0.00,,CLR,0.01,VWS V14.01,2013-01-14 04:43:00,
2013-01-13 22:48:00,33.8,23.7,30.17,North,355,7.0,10.0,66,0.00,,CLR,0.01,VWS V14.01,2013-01-14 04:48:00,
2013-01-13 22:53:00,33.7,23.9,30.17,North,5,4.0,10.0,67,0.00,,CLR,0.01,VWS V14.01,2013-01-14 04:53:00,
2013-01-13 22:58:00,33.5,23.7,30.17,NNW,340,4.0,11.0,67,0.00,,CLR,0.01,VWS V14.01,2013-01-14 04:58:00,
2013-01-13 23:00:00,33.5,23.7,30.17,North,360,10.0,12.0,67,0.00,,CLR,0.01,VWS V14.01,2013-01-14 05:00:00,
2013-01-13 23:02:00,33.5,23.7,30.17,NNW,345,7.0,11.0,67,0.00,,CLR,0.01,VWS V14.01,2013-01-14 05:02:00,
2013-01-13 23:03:00,33.5,23.7,30.17,North,355,2.0,11.0,67,0.00,,CLR,0.01,VWS V14.01,2013-01-14 05:03:00,
2013-01-13 23:04:00,33.5,23.7,30.17,North,355,3.0,11.0,67,0.00,,CLR,0.01,VWS V14.01,2013-01-14 05:04:00,
2013-01-13 23:09:00,33.4,23.6,30.17,NNE,16,5.0,11.0,67,0.00,,CLR,0.01,VWS V14.01,2013-01-14 05:09:00,
2013-01-13 23:14:00,33.4,23.6,30.17,North,360,5.0,10.0,67,0.00,,CLR,0.01,VWS V14.01,2013-01-14 05:14:00,
2013-01-13 23:19:00,33.2,23.5,30.18,North,5,5.0,12.0,67,0.00,,CLR,0.01,VWS V14.01,2013-01-14 05:19:00,
2013-01-13 23:24:00,33.2,23.5,30.18,North,355,3.0,12.0,67,0.00,,CLR,0.01,VWS V14.01,2013-01-14 05:24:00,
2013-01-13 23:29:00,33.1,23.4,30.18,North,5,5.0,14.0,67,0.00,,CLR,0.01,VWS V14.01,2013-01-14 05:29:00,
2013-01-13 23:34:00,33.1,23.4,30.18,NNE,15,5.0,11.0,67,0.00,,CLR,0.01,VWS V14.01,2013-01-14 05:34:00,
2013-01-13 23:39:00,32.9,23.2,30.18,North,5,3.0,11.0,67,0.00,,CLR,0.01,VWS V14.01,2013-01-14 05:39:00,
2013-01-13 23:44:00,32.8,23.1,30.18,NNE,12,7.0,9.0,67,0.00,,CLR,0.01,VWS V14.01,2013-01-14 05:44:00,
2013-01-13 23:49:00,32.8,23.1,30.18,North,5,4.0,9.0,67,0.00,,CLR,0.01,VWS V14.01,2013-01-14 05:49:00,
2013-01-13 23:54:00,32.7,23.0,30.18,North,9,0.0,8.0,67,0.00,,CLR,0.01,VWS V14.01,2013-01-14 05:54:00,